Gravel Ridge, Arkansas
Current Conditions -  °F | °C
As of 1:58 AM on Saturday 20 Dec 2014 (Local Time) from KLRF Reporting Station
Overcast Overcast  
Wind Chill: 39°   Ceiling: 5500
Heat Index: 39°   Visibility: 10mi
Dew Point: 36°   Wind: 2mph
Humidity: 88%   Direction: 50°NE
Pressure: 30.23"   Gusts: NA
Location:  34.9092°N, 92.1561°W
Report Text: KLRF 200758Z AUTO 05002KT 10SM OVC055 04/02 A3023 RMK AO2 SLP241 T00410023
Loading
Personal Weather Stations






























Interactive Weather Map New forecast layout! Learn more

10-Day Weather Forecast

Advertisements
Track Severe Weather on mobile